createdAt,value
2023-01-28T00:01:22.625Z,94897.66
2023-01-28T00:03:54.615Z,94892.00
2023-01-28T00:06:21.480Z,94892.00
2023-01-28T00:08:48.674Z,94886.84
2023-01-28T00:11:15.463Z,94877.47
2023-01-28T00:13:42.375Z,94867.94
2023-01-28T00:16:10.192Z,94874.13
2023-01-28T00:18:37.613Z,94889.91
2023-01-28T00:21:08.938Z,94876.25
2023-01-28T00:23:38.025Z,94876.19
2023-01-28T00:26:14.372Z,94878.94
2023-01-28T00:28:42.617Z,94872.75
2023-01-28T00:31:18.127Z,94880.94
2023-01-28T00:33:47.524Z,94875.63
2023-01-28T00:36:16.034Z,94861.78
2023-01-28T00:38:43.624Z,94869.28
2023-01-28T00:41:16.457Z,94869.88
2023-01-28T00:43:45.074Z,94862.25
2023-01-28T00:46:14.129Z,94869.88
2023-01-28T00:48:43.018Z,94866.03
2023-01-28T00:51:13.123Z,94872.66
2023-01-28T00:53:41.096Z,94867.50
2023-01-28T00:56:09.963Z,94870.00
2023-01-28T00:58:36.755Z,94866.03
2023-01-28T01:01:13.605Z,94875.25
2023-01-28T01:03:40.739Z,94851.00
2023-01-28T01:06:09.015Z,94875.44
2023-01-28T01:08:36.056Z,94872.47
2023-01-28T01:11:03.943Z,94876.16
2023-01-28T01:13:32.796Z,94845.84
2023-01-28T01:16:14.546Z,94858.81
2023-01-28T01:18:42.131Z,94856.06
2023-01-28T01:21:15.790Z,94849.16
2023-01-28T01:23:42.517Z,94859.94
2023-01-28T01:26:09.820Z,94874.31
2023-01-28T01:28:37.442Z,94871.56
2023-01-28T01:31:15.066Z,94873.94
2023-01-28T01:33:43.707Z,94881.88
2023-01-28T01:36:12.332Z,94879.00
2023-01-28T01:38:40.421Z,94871.00
2023-01-28T01:41:07.913Z,94871.91
2023-01-28T01:44:05.732Z,94888.16
2023-01-28T01:46:43.644Z,94871.13
2023-01-28T01:49:23.157Z,94881.25
2023-01-28T01:51:57.220Z,94885.75
2023-01-28T01:54:27.077Z,94881.25
2023-01-28T01:56:53.952Z,94881.59
2023-01-28T01:59:26.418Z,94886.41
2023-01-28T02:01:54.313Z,94889.72
2023-01-28T02:04:28.079Z,94889.19
2023-01-28T02:06:56.191Z,94906.13
2023-01-28T02:09:25.301Z,94898.47
2023-01-28T02:11:56.101Z,94888.69
2023-01-28T02:14:31.456Z,94881.88
2023-01-28T02:17:00.565Z,94884.47
2023-01-28T02:19:38.255Z,94891.84
2023-01-28T02:22:38.258Z,94887.97
2023-01-28T02:25:12.244Z,94886.31
2023-01-28T02:28:08.685Z,94897.66
2023-01-28T02:30:52.109Z,94897.66
2023-01-28T02:33:33.084Z,94891.84
2023-01-28T02:36:12.722Z,94902.00
2023-01-28T02:38:49.424Z,94883.72
2023-01-28T02:41:35.145Z,94900.41
2023-01-28T02:44:03.694Z,94892.78
2023-01-28T02:46:48.995Z,94904.38
2023-01-28T02:49:28.847Z,94894.34
2023-01-28T02:52:48.799Z,94905.66
2023-01-28T02:55:41.403Z,94904.47
2023-01-28T02:58:13.677Z,94906.88
2023-01-28T03:00:54.473Z,94897.28
2023-01-28T03:04:24.865Z,94908.63
2023-01-28T03:06:57.611Z,94898.78
2023-01-28T03:09:26.969Z,94900.88
2023-01-28T03:12:26.499Z,94907.34
2023-01-28T03:15:20.690Z,94901.06
2023-01-28T03:18:13.437Z,94902.34
2023-01-28T03:21:08.331Z,94893.97
2023-01-28T03:24:24.143Z,94897.75
2023-01-28T03:27:31.322Z,94900.16
2023-01-28T03:30:26.405Z,94902.72
2023-01-28T03:33:12.911Z,94895.81
2023-01-28T03:35:58.775Z,94898.78
2023-01-28T03:38:34.062Z,94903.81
2023-01-28T03:41:03.261Z,94913.41
2023-01-28T03:43:31.356Z,94903.38
2023-01-28T03:45:58.496Z,94906.97
2023-01-28T03:48:27.987Z,94916.72
2023-01-28T03:50:59.183Z,94904.84
2023-01-28T03:53:26.380Z,94918.03
2023-01-28T03:55:54.365Z,94917.13
2023-01-28T03:58:21.871Z,94908.97
2023-01-28T04:00:48.827Z,94927.91
2023-01-28T04:03:18.917Z,94925.69
2023-01-28T04:05:57.659Z,94931.75
2023-01-28T04:08:25.145Z,94926.13
2023-01-28T04:10:53.191Z,94926.78
2023-01-28T04:13:20.241Z,94922.16
2023-01-28T04:15:47.839Z,94935.81
2023-01-28T04:18:14.854Z,94930.94
2023-01-28T04:20:41.793Z,94940.16
2023-01-28T04:23:08.796Z,94927.63
2023-01-28T04:25:35.600Z,94928.91
2023-01-28T04:28:02.414Z,94919.97
2023-01-28T04:30:29.392Z,94939.63
2023-01-28T04:32:56.139Z,94923.19
2023-01-28T04:35:22.908Z,94933.59
2023-01-28T04:37:49.700Z,94928.16
2023-01-28T04:40:16.866Z,94922.66
2023-01-28T04:42:43.762Z,94920.69
2023-01-28T04:45:10.939Z,94922.28
2023-01-28T04:47:37.671Z,94944.94
2023-01-28T04:50:04.895Z,94942.75
2023-01-28T04:52:31.635Z,94941.53
2023-01-28T04:54:58.708Z,94939.78
2023-01-28T04:57:25.509Z,94947.53
2023-01-28T04:59:52.255Z,94944.03
2023-01-28T05:02:19.053Z,94945.41
2023-01-28T05:04:45.875Z,94954.91
2023-01-28T05:07:12.682Z,94951.78
2023-01-28T05:09:39.412Z,94957.13
2023-01-28T05:12:06.493Z,94949.56
2023-01-28T05:14:33.253Z,94958.59
2023-01-28T05:17:00.077Z,94966.19
2023-01-28T05:19:26.866Z,94958.31
2023-01-28T05:21:53.576Z,94955.28
2023-01-28T05:24:21.754Z,94960.44
2023-01-28T05:26:48.559Z,94966.72
2023-01-28T05:29:15.304Z,94967.66
2023-01-28T05:31:42.054Z,94972.81
2023-01-28T05:34:08.898Z,94971.16
2023-01-28T05:36:35.659Z,94973.38
2023-01-28T05:39:02.403Z,94963.19
2023-01-28T05:41:29.197Z,94976.97
2023-01-28T05:43:55.989Z,94975.78
2023-01-28T05:46:23.058Z,94970.78
2023-01-28T05:48:51.072Z,94966.56
2023-01-28T05:51:18.147Z,94977.94
2023-01-28T05:53:44.973Z,94988.28
2023-01-28T05:56:11.771Z,94981.56
2023-01-28T05:58:38.537Z,94966.25
2023-01-28T06:01:05.332Z,94981.19
2023-01-28T06:03:32.125Z,94978.97
2023-01-28T06:05:58.891Z,94978.16
2023-01-28T06:08:25.657Z,94988.84
2023-01-28T06:10:52.414Z,94987.28
2023-01-28T06:13:19.123Z,94977.63
2023-01-28T06:15:51.092Z,94984.81
2023-01-28T06:18:17.961Z,94972.44
2023-01-28T06:20:44.712Z,94997.16
2023-01-28T06:23:11.429Z,94987.38
2023-01-28T06:25:38.191Z,95000.38
2023-01-28T06:28:05.024Z,95006.03
2023-01-28T06:30:31.879Z,94994.09
2023-01-28T06:32:59.146Z,95002.94
2023-01-28T06:35:26.014Z,95003.78
2023-01-28T06:37:53.706Z,95014.38
2023-01-28T06:40:22.976Z,95013.94
2023-01-28T06:42:49.911Z,95015.41
2023-01-28T06:45:16.727Z,95020.41
2023-01-28T06:47:43.460Z,95033.69
2023-01-28T06:50:11.206Z,95021.88
2023-01-28T06:52:37.911Z,95031.66
2023-01-28T06:55:05.174Z,95038.41
2023-01-28T06:57:31.923Z,95029.34
2023-01-28T06:59:58.675Z,95033.94
2023-01-28T07:02:27.599Z,95029.53
2023-01-28T07:04:54.526Z,95031.84
2023-01-28T07:07:21.345Z,95050.19
2023-01-28T07:09:48.082Z,95056.00
2023-01-28T07:12:14.859Z,95043.28
2023-01-28T07:14:41.583Z,95038.88
2023-01-28T07:17:08.367Z,95051.19
2023-01-28T07:19:35.428Z,95062.84
2023-01-28T07:22:03.307Z,95059.53
2023-01-28T07:24:30.573Z,95061.19
2023-01-28T07:26:57.388Z,95055.19
2023-01-28T07:29:24.125Z,95058.34
2023-01-28T07:31:50.904Z,95054.34
2023-01-28T07:34:17.634Z,95067.81
2023-01-28T07:36:44.357Z,95064.41
2023-01-28T07:39:11.120Z,95054.72
2023-01-28T07:41:37.836Z,95068.91
2023-01-28T07:44:04.968Z,95064.13
2023-01-28T07:46:31.872Z,95074.38
2023-01-28T07:48:58.599Z,95070.78
2023-01-28T07:51:26.029Z,95072.81
2023-01-28T07:53:52.772Z,95078.66
2023-01-28T07:56:19.491Z,95085.84
2023-01-28T07:58:46.233Z,95085.66
2023-01-28T08:01:14.345Z,95078.38
2023-01-28T08:03:41.132Z,95089.59
2023-01-28T08:06:07.900Z,95088.91
2023-01-28T08:08:34.719Z,95072.91
2023-01-28T08:11:10.915Z,95081.16
2023-01-28T08:13:37.835Z,95091.88
2023-01-28T08:16:05.181Z,95093.50
2023-01-28T08:18:32.230Z,95100.53
2023-01-28T08:21:00.116Z,95089.72
2023-01-28T08:23:29.213Z,95102.47
2023-01-28T08:25:59.321Z,95102.47
2023-01-28T08:28:26.599Z,95112.72
2023-01-28T08:30:53.639Z,95105.53
2023-01-28T08:33:20.785Z,95109.38
2023-01-28T08:35:47.717Z,95108.56
2023-01-28T08:38:18.046Z,95122.22
2023-01-28T08:40:44.850Z,95111.53
2023-01-28T08:43:11.685Z,95119.19
2023-01-28T08:45:40.386Z,95114.75
2023-01-28T08:48:10.221Z,95117.06
2023-01-28T08:50:39.664Z,95116.31
2023-01-28T08:53:12.367Z,95107.00
2023-01-28T08:55:39.086Z,95107.66
2023-01-28T08:58:18.334Z,95087.16
2023-01-28T09:00:48.047Z,95095.38
2023-01-28T09:03:15.265Z,95129.81
2023-01-28T09:05:42.430Z,95121.19
2023-01-28T09:08:15.404Z,95113.19
2023-01-28T09:10:42.705Z,95108.41
2023-01-28T09:13:15.876Z,95124.19
2023-01-28T09:15:43.098Z,95122.88
2023-01-28T09:18:10.244Z,95120.88
2023-01-28T09:20:37.857Z,95129.75
2023-01-28T09:23:04.926Z,95126.66
2023-01-28T09:25:32.519Z,95130.47
2023-01-28T09:27:59.369Z,95120.31
2023-01-28T09:30:26.674Z,95132.94
2023-01-28T09:32:55.297Z,95135.22
2023-01-28T09:35:22.497Z,95136.34
2023-01-28T09:37:49.395Z,95138.41
2023-01-28T09:40:37.393Z,95145.88
2023-01-28T09:43:29.317Z,95147.63
2023-01-28T09:45:59.428Z,95148.84
2023-01-28T09:48:33.896Z,95126.66
2023-01-28T09:51:01.931Z,95130.47
2023-01-28T09:53:35.774Z,95138.25
2023-01-28T09:56:13.320Z,95140.53
2023-01-28T09:58:42.401Z,95140.63
2023-01-28T10:01:46.354Z,95141.19
2023-01-28T10:04:23.412Z,95136.63
2023-01-28T10:07:43.092Z,95149.84
2023-01-28T10:10:34.649Z,95155.41
2023-01-28T10:13:31.493Z,95148.00
2023-01-28T10:16:15.573Z,95143.00
2023-01-28T10:18:52.821Z,95151.69
2023-01-28T10:21:29.458Z,95148.75
2023-01-28T10:24:13.851Z,95146.44
2023-01-28T10:26:43.114Z,95135.66
2023-01-28T10:29:28.133Z,95151.16
2023-01-28T10:32:03.072Z,95146.72
2023-01-28T10:34:29.832Z,95153.00
2023-01-28T10:36:58.186Z,95154.50
2023-01-28T10:39:26.384Z,95155.59
2023-01-28T10:41:58.204Z,95135.19
2023-01-28T10:44:39.170Z,95157.25
2023-01-28T10:47:15.829Z,95154.88
2023-01-28T10:49:49.357Z,95145.13
2023-01-28T10:52:16.895Z,95159.28
2023-01-28T10:54:43.639Z,95148.38
2023-01-28T10:57:16.927Z,95148.38
2023-01-28T10:59:44.502Z,95145.41
2023-01-28T11:02:32.845Z,95142.47
2023-01-28T11:05:15.221Z,95144.88
2023-01-28T11:07:42.114Z,95132.84
2023-01-28T11:10:32.431Z,95147.78
2023-01-28T11:13:06.285Z,95138.03
2023-01-28T11:15:33.624Z,95145.50
2023-01-28T11:18:08.832Z,95151.78
2023-01-28T11:20:43.783Z,95145.16
2023-01-28T11:23:25.319Z,95148.00
2023-01-28T11:26:09.506Z,95132.41
2023-01-28T11:28:41.883Z,95142.50
2023-01-28T11:31:13.353Z,95136.75
2023-01-28T11:33:50.218Z,95135.19
2023-01-28T11:36:32.178Z,95130.56
2023-01-28T11:39:22.318Z,95124.72
2023-01-28T11:41:49.449Z,95138.03
2023-01-28T11:44:22.156Z,95105.03
2023-01-28T11:47:33.915Z,95107.53
2023-01-28T11:50:41.651Z,95146.13
2023-01-28T11:53:40.619Z,95135.28
2023-01-28T11:56:39.958Z,95138.81
2023-01-28T11:59:42.879Z,95106.69
2023-01-28T12:02:26.761Z,95138.63
2023-01-28T12:05:12.943Z,95142.63
2023-01-28T12:07:55.737Z,95096.06
2023-01-28T12:10:41.604Z,95140.81
2023-01-28T12:13:42.960Z,95090.91
2023-01-28T12:16:17.807Z,95136.13
2023-01-28T12:19:30.106Z,95133.34
2023-01-28T12:22:05.705Z,95129.47
2023-01-28T12:25:13.180Z,95143.38
2023-01-28T12:28:10.193Z,95142.28
2023-01-28T12:31:28.090Z,95139.69
2023-01-28T12:34:13.449Z,95132.19
2023-01-28T12:37:20.858Z,95124.34
2023-01-28T12:40:09.073Z,95139.03
2023-01-28T12:42:38.009Z,95135.50
2023-01-28T12:45:21.043Z,95126.16
2023-01-28T12:47:51.793Z,95091.63
2023-01-28T12:50:28.949Z,95079.97
2023-01-28T12:53:14.521Z,95126.13
2023-01-28T12:55:49.025Z,95124.13
2023-01-28T12:58:26.082Z,95091.25
2023-01-28T13:01:01.659Z,95095.28
2023-01-28T13:03:42.614Z,95101.63
2023-01-28T13:06:18.135Z,95108.75
2023-01-28T13:08:44.914Z,95103.00
2023-01-28T13:11:17.556Z,95122.41
2023-01-28T13:13:46.816Z,95107.84
2023-01-28T13:16:14.187Z,95095.38
2023-01-28T13:18:41.074Z,95116.13
2023-01-28T13:21:26.411Z,95113.94
2023-01-28T13:24:02.855Z,95119.13
2023-01-28T13:26:38.482Z,95077.94
2023-01-28T13:29:33.440Z,95125.34
2023-01-28T13:32:03.977Z,95128.22
2023-01-28T13:34:38.058Z,95095.13
2023-01-28T13:37:47.372Z,95110.41
2023-01-28T13:40:14.075Z,95130.28
2023-01-28T13:42:41.897Z,95081.00
2023-01-28T13:45:22.434Z,95091.47
2023-01-28T13:48:00.136Z,95141.06
2023-01-28T13:50:39.832Z,95127.38
2023-01-28T13:53:27.787Z,95131.09
2023-01-28T13:55:58.715Z,95106.63
2023-01-28T13:58:34.239Z,95140.88
2023-01-28T14:01:17.974Z,95109.41
2023-01-28T14:04:22.211Z,95147.47
2023-01-28T14:07:20.350Z,95145.44
2023-01-28T14:13:31.997Z,95149.75
2023-01-28T14:16:41.660Z,95151.78
2023-01-28T14:19:14.519Z,95119.88
2023-01-28T14:21:41.381Z,95119.53
2023-01-28T14:24:18.122Z,95164.56
2023-01-28T14:27:04.530Z,95131.91
2023-01-28T14:29:52.441Z,95167.84
2023-01-28T14:32:29.788Z,95133.50
2023-01-28T14:35:00.786Z,95138.78
2023-01-28T14:37:31.946Z,95144.72
2023-01-28T14:39:59.718Z,95170.59
2023-01-28T14:42:45.837Z,95155.56
2023-01-28T14:45:33.528Z,95178.00
2023-01-28T14:48:30.972Z,95176.75
2023-01-28T14:51:09.776Z,95186.84
2023-01-28T14:54:19.587Z,95197.59
2023-01-28T14:57:49.970Z,95202.66
2023-01-28T15:00:28.784Z,95169.59
2023-01-28T15:02:55.996Z,95199.97
2023-01-28T15:05:27.855Z,95201.38
2023-01-28T15:07:55.917Z,95172.75
2023-01-28T15:10:25.337Z,95206.81
2023-01-28T15:13:07.075Z,95171.28
2023-01-28T15:15:37.477Z,95180.97
2023-01-28T15:18:16.758Z,95168.50
2023-01-28T15:20:53.494Z,95187.75
2023-01-28T15:23:33.886Z,95184.97
2023-01-28T15:26:10.979Z,95199.00
2023-01-28T15:28:40.075Z,95230.06
2023-01-28T15:31:07.544Z,95203.81
2023-01-28T15:33:34.341Z,95197.72
2023-01-28T15:36:01.288Z,95205.75
2023-01-28T15:38:29.404Z,95208.72
2023-01-28T15:41:02.862Z,95216.41
2023-01-28T15:43:37.323Z,95219.56
2023-01-28T15:46:10.479Z,95210.56
2023-01-28T15:48:42.039Z,95233.50
2023-01-28T15:51:21.175Z,95240.59
2023-01-28T15:53:52.701Z,95219.72
2023-01-28T15:56:27.979Z,95222.69
2023-01-28T15:58:56.326Z,95225.09
2023-01-28T16:01:24.222Z,95235.53
2023-01-28T16:04:06.859Z,95232.84
2023-01-28T16:06:41.842Z,95249.03
2023-01-28T16:09:24.984Z,95227.19
2023-01-28T16:11:52.565Z,95244.22
2023-01-28T16:14:30.454Z,95240.59
2023-01-28T16:16:57.988Z,95273.16
2023-01-28T16:19:46.113Z,95247.63
2023-01-28T16:22:33.934Z,95282.56
2023-01-28T16:25:01.015Z,95239.84
2023-01-28T16:27:29.785Z,95269.84
2023-01-28T16:29:56.533Z,95240.97
2023-01-28T16:32:33.436Z,95289.44
2023-01-28T16:35:01.054Z,95291.44
2023-01-28T16:37:27.972Z,95250.03
2023-01-28T16:39:54.766Z,95251.69
2023-01-28T16:42:21.657Z,95254.03
2023-01-28T16:44:48.493Z,95256.69
2023-01-28T16:47:15.352Z,95224.91
2023-01-28T16:49:42.193Z,95273.31
2023-01-28T16:52:11.575Z,95270.16
2023-01-28T16:54:41.091Z,95268.22
2023-01-28T16:57:16.750Z,95271.47
2023-01-28T16:59:43.566Z,95290.16
2023-01-28T17:02:15.973Z,95278.03
2023-01-28T17:04:42.772Z,95276.06
2023-01-28T17:07:10.077Z,95267.41
2023-01-28T17:09:36.899Z,95263.34
2023-01-28T17:12:04.801Z,95290.97
2023-01-28T17:14:31.609Z,95279.78
2023-01-28T17:16:58.364Z,95302.06
2023-01-28T17:19:25.232Z,95281.75
2023-01-28T17:21:52.001Z,95271.47
2023-01-28T17:24:18.804Z,95264.25
2023-01-28T17:26:45.618Z,95253.44
2023-01-28T17:29:12.440Z,95278.28
2023-01-28T17:31:39.275Z,95304.75
2023-01-28T17:34:08.231Z,95271.34
2023-01-28T17:36:35.286Z,95268.94
2023-01-28T17:39:02.202Z,95284.78
2023-01-28T17:41:29.284Z,95304.72
2023-01-28T17:43:57.002Z,95292.50
2023-01-28T17:46:25.836Z,95304.22
2023-01-28T17:48:53.222Z,95303.97
2023-01-28T17:51:20.281Z,95304.16
2023-01-28T17:53:49.033Z,95329.69
2023-01-28T17:56:18.718Z,95306.72
2023-01-28T17:59:06.623Z,95342.44
2023-01-28T18:01:37.293Z,95342.63
2023-01-28T18:04:04.796Z,95321.81
2023-01-28T18:06:34.214Z,95348.38
2023-01-28T18:09:01.232Z,95343.56
2023-01-28T18:11:28.864Z,95329.50
2023-01-28T18:13:55.917Z,95292.28
2023-01-28T18:16:23.057Z,95312.34
2023-01-28T18:18:50.792Z,95342.81
2023-01-28T18:21:46.573Z,95289.50
2023-01-28T18:24:17.621Z,95301.63
2023-01-28T18:26:44.633Z,95312.72
2023-01-28T18:29:16.892Z,95291.28
2023-01-28T18:31:44.145Z,95314.31
2023-01-28T18:34:11.179Z,95336.06
2023-01-28T18:36:38.084Z,95315.81
2023-01-28T18:39:05.005Z,95301.00
2023-01-28T18:41:31.876Z,95292.50
2023-01-28T18:43:58.724Z,95309.31
2023-01-28T18:46:25.583Z,95296.00
2023-01-28T18:48:52.464Z,95307.81
2023-01-28T18:51:30.156Z,95305.16
2023-01-28T18:54:02.554Z,95288.59
2023-01-28T18:56:54.187Z,95307.81
2023-01-28T18:59:21.505Z,95309.50
2023-01-28T19:01:48.758Z,95289.50
2023-01-28T19:04:16.415Z,95306.00
2023-01-28T19:06:43.571Z,95294.94
2023-01-28T19:09:12.785Z,95343.72
2023-01-28T19:11:41.043Z,95302.97
2023-01-28T19:14:10.504Z,95355.38
2023-01-28T19:16:37.810Z,95337.41
2023-01-28T19:19:05.646Z,95308.09
2023-01-28T19:21:34.225Z,95315.44
2023-01-28T19:24:06.737Z,95309.41
2023-01-28T19:26:34.139Z,95317.75
2023-01-28T19:29:01.717Z,95282.75
2023-01-28T19:31:29.440Z,95315.06
2023-01-28T19:33:59.446Z,95312.47
2023-01-28T19:36:29.479Z,95321.16
2023-01-28T19:39:07.621Z,95360.03
2023-01-28T19:41:35.909Z,95318.28
2023-01-28T19:44:03.440Z,95290.34
2023-01-28T19:46:30.876Z,95377.66
2023-01-28T19:48:57.759Z,95315.00
2023-01-28T19:51:25.167Z,95335.50
2023-01-28T19:53:54.352Z,95347.16
2023-01-28T19:56:24.386Z,95306.34
2023-01-28T19:58:54.825Z,95349.28
2023-01-28T20:01:27.943Z,95299.50
2023-01-28T20:03:59.442Z,95325.97
2023-01-28T20:06:31.650Z,95308.41
2023-01-28T20:09:06.222Z,95322.84
2023-01-28T20:11:33.161Z,95293.84
2023-01-28T20:14:00.074Z,95301.34
2023-01-28T20:16:31.247Z,95321.16
2023-01-28T20:19:04.338Z,95313.59
2023-01-28T20:21:33.171Z,95324.84
2023-01-28T20:24:02.341Z,95304.94
2023-01-28T20:26:33.250Z,95332.81
2023-01-28T20:29:09.666Z,95376.47
2023-01-28T20:31:38.775Z,95317.66
2023-01-28T20:34:06.154Z,95345.31
2023-01-28T20:36:33.281Z,95366.47
2023-01-28T20:39:00.537Z,95296.72
2023-01-28T20:41:27.792Z,95309.28
2023-01-28T20:43:55.387Z,95330.75
2023-01-28T20:46:27.747Z,95361.47
2023-01-28T20:48:57.636Z,95371.81
2023-01-28T20:51:28.387Z,95351.38
2023-01-28T20:53:56.283Z,95338.34
2023-01-28T20:56:27.653Z,95376.91
2023-01-28T20:58:57.823Z,95336.88
2023-01-28T21:01:29.450Z,95372.94
2023-01-28T21:03:57.041Z,95349.56
2023-01-28T21:06:25.265Z,95351.88
2023-01-28T21:08:53.354Z,95349.97
2023-01-28T21:11:21.044Z,95344.31
2023-01-28T21:13:48.110Z,95353.22
2023-01-28T21:16:15.206Z,95367.19
2023-01-28T21:18:42.352Z,95381.03
2023-01-28T21:21:20.911Z,95360.03
2023-01-28T21:23:48.635Z,95349.88
2023-01-28T21:26:16.669Z,95352.75
2023-01-28T21:28:45.914Z,95348.38
2023-01-28T21:31:22.194Z,95402.56
2023-01-28T21:33:50.802Z,95361.06
2023-01-28T21:36:18.718Z,95323.59
2023-01-28T21:38:51.087Z,95321.63
2023-01-28T21:41:18.074Z,95346.97
2023-01-28T21:43:44.944Z,95343.56
2023-01-28T21:46:11.827Z,95332.38
2023-01-28T21:48:38.727Z,95352.75
2023-01-28T21:51:47.363Z,95315.56
2023-01-28T21:54:19.519Z,95321.88
2023-01-28T21:56:49.431Z,95365.72
2023-01-28T21:59:30.755Z,95338.47
2023-01-28T22:02:01.235Z,95345.22
2023-01-28T22:04:35.201Z,95354.38
2023-01-28T22:07:03.701Z,95357.44
2023-01-28T22:09:31.349Z,95362.50
2023-01-28T22:11:58.261Z,95353.41
2023-01-28T22:14:25.583Z,95375.34
2023-01-28T22:16:53.329Z,95351.56
2023-01-28T22:19:20.906Z,95336.50
2023-01-28T22:21:48.745Z,95371.41
2023-01-28T22:24:22.671Z,95333.94
2023-01-28T22:26:49.984Z,95381.81
2023-01-28T22:29:19.125Z,95370.41
2023-01-28T22:31:50.894Z,95344.56
2023-01-28T22:34:19.545Z,95383.78
2023-01-28T22:36:47.474Z,95401.84
2023-01-28T22:39:16.450Z,95332.31
2023-01-28T22:41:44.796Z,95341.22
2023-01-28T22:44:11.954Z,95336.16
2023-01-28T22:46:38.888Z,95342.91
2023-01-28T22:49:05.933Z,95339.31
2023-01-28T22:51:35.990Z,95318.34
2023-01-28T22:54:03.860Z,95360.06
2023-01-28T22:56:31.763Z,95358.78
2023-01-28T22:59:03.776Z,95379.91
2023-01-28T23:01:31.201Z,95334.28
2023-01-28T23:03:58.374Z,95357.28
2023-01-28T23:06:27.685Z,95337.75
2023-01-28T23:08:56.547Z,95362.09
2023-01-28T23:11:28.352Z,95354.34
2023-01-28T23:14:19.861Z,95351.16
2023-01-28T23:17:06.476Z,95408.19
2023-01-28T23:19:52.276Z,95366.88
2023-01-28T23:22:47.424Z,95361.63
2023-01-28T23:25:15.103Z,95377.69
2023-01-28T23:27:43.210Z,95375.69
2023-01-28T23:30:11.920Z,95345.28
2023-01-28T23:32:41.981Z,95391.63
2023-01-28T23:35:10.575Z,95352.59
2023-01-28T23:37:37.844Z,95368.44
2023-01-28T23:40:06.348Z,95373.47
2023-01-28T23:42:33.252Z,95356.75
2023-01-28T23:45:00.262Z,95380.53
2023-01-28T23:47:27.144Z,95365.19
2023-01-28T23:49:54.399Z,95388.44
2023-01-28T23:52:21.373Z,95381.28
2023-01-28T23:54:48.236Z,95378.63
2023-01-28T23:57:15.169Z,95387.78
2023-01-28T23:59:42.582Z,95374.84
